Flight Track Log - Related Links

Times and Time Zones

All times are in EDT time to prevent confusion due to time zone crossing. See the DCM210 flight status page for this flight to view local times or setup timezone preferences in your user account.


Time Position Orientation Groundspeed Altitude Reporting Facility
EDT Latitude Longitude Course Direction KTS MPH feet Rate Location/Type
Wed 12:15:39 PM 40.6667 -73.6833 232° Southwest 220 253 3,900  Level New York TRACON
Wed 12:16:39 PM 40.6500 -73.6000 105° East 257 296 5,000 600 Climbing New York TRACON
Wed 12:17:39 PM 40.5833 -73.6500 210° Southwest 238 274 5,100 947 Climbing New York TRACON
Wed 12:18:33 PM 40.5667 -73.7167 252° West 275 316 6,800 1,950 Climbing New York TRACON
Wed 12:19:39 PM 40.5167 -73.8000 232° Southwest 272 313 9,000 1,238 Climbing New York TRACON
Wed 12:20:00 PM 40.3125 -74.2903 232° Southwest  Level FlightAware Approximate
Wed 12:20:39 PM 40.4833 -73.8833 242° Southwest 262 302 9,400  Level New York TRACON
Wed 12:21:39 PM 40.4500 -73.9667 242° Southwest 261 300 11,600 2,154 Climbing New York TRACON
Wed 12:23:15 PM 40.3833 -74.1061 238° Southwest 268 308 15,000 1,462 Climbing New York Center
Wed 12:24:15 PM 40.3411 -74.1939 238° Southwest 273 314 15,400 500 Climbing New York Center
Wed 12:25:15 PM 40.3053 -74.2792 241° Southwest 273 314 16,000 1,200 Climbing New York Center
Wed 12:26:15 PM 40.2675 -74.3589 238° Southwest 287 330 17,800 1,500 Climbing New York Center
Wed 12:27:15 PM 40.2183 -74.4622 238° Southwest 292 336 19,000 1,350 Climbing New York Center
Wed 12:28:15 PM 40.1967 -74.5589 254° West 303 349 20,500 1,350 Climbing New York Center
Wed 12:29:15 PM 40.1864 -74.6753 263° West 315 362 21,700 1,250 Climbing New York Center
Wed 12:30:15 PM 40.1783 -74.7969 265° West 328 377 23,000 1,400 Climbing New York Center
Wed 12:31:15 PM 40.1717 -74.9269 266° West 334 384 24,500 1,500 Climbing New York Center
Wed 12:32:15 PM 40.1608 -75.0514 264° West 334 384 26,000 1,250 Climbing New York Center
Wed 12:33:15 PM 40.1525 -75.1650 265° West 346 398 27,000 950 Climbing New York Center
Wed 12:34:15 PM 40.1417 -75.2917 264° West 346 398 27,900 950 Climbing New York Center
Wed 12:35:15 PM 40.1078 -75.4117 250° West 351 404 28,900 1,100 Climbing New York Center
Wed 12:36:15 PM 40.0414 -75.5050 227° Southwest 342 394 30,100 1,100 Climbing New York Center
Wed 12:37:15 PM 39.9750 -75.5981 227° Southwest 352 405 31,100 950 Climbing New York Center
Wed 12:38:15 PM 39.9042 -75.6986 227° Southwest 366 421 32,000 950 Climbing New York Center
Wed 12:39:15 PM 39.8414 -75.8025 232° Southwest 372 428 33,000 900 Climbing New York Center
Wed 12:40:15 PM 39.7767 -75.9058 231° Southwest 372 428 33,800 750 Climbing New York Center
Wed 12:41:15 PM 39.7092 -76.0142 231° Southwest 377 434 34,500 674 Climbing New York Center
Wed 12:43:22 PM 39.5597 -76.2428 230° Southwest 378 435 35,900 479 Climbing Washington Center
Wed 12:44:23 PM 39.4883 -76.3497 229° Southwest 383 441 36,000 51 Climbing Washington Center
Wed 12:45:20 PM 39.4208 -76.4592 231° Southwest 389 448 36,000  Level Washington Center
Wed 12:46:23 PM 39.3556 -76.5553 229° Southwest 400 460 36,000  Level Washington Center
Wed 12:47:23 PM 39.2858 -76.6642 230° Southwest 400 460 36,000  Level Washington Center
Wed 12:48:21 PM 39.2181 -76.7703 231° Southwest 400 460 36,000  Level Washington Center
Wed 12:49:21 PM 39.1503 -76.8764 231° Southwest 400 460 36,000  Level Washington Center
Wed 12:50:22 PM 39.0803 -76.9847 230° Southwest 400 460 36,000  Level Washington Center
Wed 12:51:21 PM 39.0064 -77.0794 225° Southwest 400 460 36,000  Level Washington Center
Wed 12:52:21 PM 38.9175 -77.1739 220° Southwest 400 460 36,000  Level Washington Center
Wed 12:53:23 PM 38.8308 -77.2706 221° Southwest 406 467 36,000  Level Washington Center
Wed 12:54:21 PM 38.7439 -77.3644 220° Southwest 411 473 36,000  Level Washington Center
Wed 12:55:22 PM 38.6464 -77.4683 220° Southwest 411 473 36,000  Level Washington Center
Wed 12:56:22 PM 38.5617 -77.5644 222° Southwest 411 473 36,000  Level Washington Center
Wed 12:57:23 PM 38.4744 -77.6575 220° Southwest 411 473 36,000  Level Washington Center
Wed 12:58:21 PM 38.3894 -77.7506 221° Southwest 411 473 36,000  Level Washington Center
Wed 12:59:22 PM 38.3064 -77.8408 220° Southwest 411 473 36,000  Level Washington Center
Wed 01:00:22 PM 38.2214 -77.9308 220° Southwest 406 467 36,000  Level Washington Center
Wed 01:01:23 PM 38.1361 -78.0231 220° Southwest 406 467 36,000  Level Washington Center
Wed 01:02:21 PM 38.0508 -78.1128 220° Southwest 411 473 36,000  Level Washington Center
Wed 01:03:21 PM 37.9739 -78.1969 221° Southwest 398 458 36,000  Level Washington Center
Wed 01:04:21 PM 37.8953 -78.2681 216° Southwest 387 445 36,000  Level Washington Center
Wed 01:05:23 PM 37.8119 -78.3492 218° Southwest 387 445 36,000  Level Washington Center
Wed 01:06:20 PM 37.7289 -78.4250 216° Southwest 381 438 36,000  Level Washington Center
Wed 01:07:21 PM 37.6458 -78.5031 217° Southwest 375 432 36,000  Level Washington Center
Wed 01:08:22 PM 37.5561 -78.5886 217° Southwest 375 432 36,000  Level Washington Center
Wed 01:09:23 PM 37.4908 -78.6933 232° Southwest 369 425 36,000  Level Washington Center
Wed 01:10:23 PM 37.4297 -78.7983 234° Southwest 374 430 36,000  Level Washington Center
Wed 01:11:21 PM 37.3664 -78.9028 233° Southwest 380 437 36,000  Level Washington Center
Wed 01:12:22 PM 37.2808 -78.9772 215° Southwest 372 428 36,000  Level Washington Center
Wed 01:13:22 PM 37.1997 -79.0414 212° Southwest 383 441 36,000  Level Washington Center
Wed 01:14:23 PM 37.1078 -79.1156 213° Southwest 389 448 36,000  Level Washington Center
Wed 01:15:23 PM 37.0181 -79.1869 212° Southwest 389 448 36,000  Level Washington Center
Wed 01:16:21 PM 36.9303 -79.2608 214° Southwest 389 448 36,000  Level Washington Center
Wed 01:17:21 PM 36.8317 -79.3417 213° Southwest 389 448 36,000  Level Washington Center
Wed 01:18:23 PM 36.7439 -79.4125 213° Southwest 389 448 36,000  Level Washington Center
Wed 01:19:21 PM 36.6561 -79.4833 213° Southwest 389 448 36,000  Level Washington Center
Wed 01:20:22 PM 36.5661 -79.5564 213° Southwest 389 448 36,000  Level Washington Center
Wed 01:21:41 PM 36.4469 -79.6511 213° Southwest 389 448 36,000  Level Atlanta Center
Wed 01:22:41 PM 36.3578 -79.7206 212° Southwest 389 448 36,000  Level Atlanta Center
Wed 01:23:41 PM 36.2686 -79.7950 214° Southwest 389 448 36,000  Level Atlanta Center
Wed 01:24:41 PM 36.1894 -79.8581 213° Southwest 389 448 36,000  Level Atlanta Center
Wed 01:25:41 PM 36.0981 -79.9297 212° Southwest 389 448 36,000  Level Atlanta Center
Wed 01:26:41 PM 36.0042 -79.9936 209° Southwest 384 442 36,000  Level Atlanta Center
Wed 01:27:41 PM 35.9056 -80.0444 203° Southwest 384 442 36,000  Level Atlanta Center
Wed 01:28:41 PM 35.7967 -80.0961 201° Southwest 379 436 36,000  Level Atlanta Center
Wed 01:29:41 PM 35.6983 -80.1467 203° Southwest 384 442 36,000  Level Atlanta Center
Wed 01:30:41 PM 35.6019 -80.2000 204° Southwest 384 442 36,000  Level Atlanta Center
Wed 01:31:41 PM 35.5011 -80.2506 202° Southwest 389 448 36,000  Level Atlanta Center
Wed 01:32:41 PM 35.4047 -80.2983 202° Southwest 389 448 36,000  Level Atlanta Center
Wed 01:33:41 PM 35.3061 -80.3486 203° Southwest 389 448 36,000  Level Atlanta Center
Wed 01:34:41 PM 35.2053 -80.3989 202° Southwest 389 448 36,000  Level Atlanta Center
Wed 01:36:06 PM 35.0647 -80.4656 201° Southwest 395 455 36,000  Level Jacksonville Center
Wed 01:37:06 PM 34.9656 -80.5164 203° Southwest 390 449 36,000  Level Jacksonville Center
Wed 01:38:06 PM 34.8642 -80.5622 200° South 390 449 36,000  Level Jacksonville Center
Wed 01:39:06 PM 34.7714 -80.6128 204° Southwest 380 437 36,000  Level Jacksonville Center
Wed 01:40:06 PM 34.6719 -80.6611 202° Southwest 380 437 36,000  Level Jacksonville Center
Wed 01:41:06 PM 34.5664 -80.7067 200° South 388 447 36,000  Level Jacksonville Center
Wed 01:42:06 PM 34.4692 -80.7569 203° Southwest 393 452 36,000  Level Jacksonville Center
Wed 01:43:06 PM 34.3697 -80.7944 197° South 393 452 36,000 50 Level Jacksonville Center
Wed 01:44:06 PM 34.2911 -80.8342 203° Southwest 393 452 36,100 400 Climbing Jacksonville Center
Wed 01:45:06 PM 34.1878 -80.8919 205° Southwest 383 441 36,800 700 Climbing Jacksonville Center
Wed 01:46:06 PM 34.0925 -80.9342 200° South 383 441 37,500 550 Climbing Jacksonville Center
Wed 01:47:06 PM 33.9911 -80.9839 202° Southwest 383 441 37,900 250 Climbing Jacksonville Center
Wed 01:48:06 PM 33.8853 -81.0314 200° South 383 441 38,000 50 Climbing Jacksonville Center
Wed 01:49:06 PM 33.7817 -81.0761 200° South 383 441 38,000  Level Jacksonville Center
Wed 01:50:06 PM 33.6925 -81.1228 204° Southwest 391 450 38,000  Level Jacksonville Center
Wed 01:51:06 PM 33.5908 -81.1697 201° Southwest 391 450 38,000  Level Jacksonville Center
Wed 01:52:06 PM 33.4914 -81.2164 201° Southwest 391 450 38,000  Level Jacksonville Center
Wed 01:53:06 PM 33.3917 -81.2606 200° South 391 450 38,000  Level Jacksonville Center
Wed 01:54:06 PM 33.2964 -81.3069 202° Southwest 386 444 38,000  Level Jacksonville Center
Wed 01:55:06 PM 33.1989 -81.3536 202° Southwest 380 437 38,000  Level Jacksonville Center
Wed 01:56:06 PM 33.1056 -81.3972 201° Southwest 375 432 38,000  Level Jacksonville Center
Wed 01:57:06 PM 33.0056 -81.4336 197° South 375 432 38,000  Level Jacksonville Center
Wed 01:58:06 PM 32.9036 -81.4625 193° South 375 432 38,000  Level Jacksonville Center
Wed 01:59:06 PM 32.7975 -81.4914 193° South 380 437 38,000  Level Jacksonville Center
Wed 02:00:06 PM 32.6914 -81.5200 193° South 385 443 38,000  Level Jacksonville Center
Wed 02:01:06 PM 32.5750 -81.5539 194° South 393 452 38,000  Level Jacksonville Center
Wed 02:02:06 PM 32.4689 -81.5850 194° South 393 452 38,000  Level Jacksonville Center
Wed 02:03:06 PM 32.3708 -81.6111 193° South 398 458 38,000  Level Jacksonville Center
Wed 02:04:06 PM 32.2522 -81.6447 193° South 393 452 38,000  Level Jacksonville Center
Wed 02:05:06 PM 32.1544 -81.6731 194° South 393 452 38,000  Level Jacksonville Center
Wed 02:06:06 PM 32.0317 -81.7064 193° South 410 472 38,000  Level Jacksonville Center
Wed 02:07:06 PM 31.9192 -81.7347 192° South 410 472 38,000 -250 Level Jacksonville Center
Wed 02:08:06 PM 31.8150 -81.7631 193° South 428 493 37,500 -1,000 Descending Jacksonville Center
Wed 02:09:06 PM 31.6919 -81.7986 194° South 423 487 36,000 -750 Descending Jacksonville Center
Wed 02:10:06 PM 31.5919 -81.8242 192° South 414 476 36,000 -300 Level Jacksonville Center
Wed 02:11:06 PM 31.4650 -81.8575 193° South 420 483 35,400 -750 Descending Jacksonville Center
Wed 02:12:06 PM 31.3586 -81.8878 194° South 432 497 34,500 -700 Descending Jacksonville Center
Wed 02:13:06 PM 31.2442 -81.9206 194° South 432 497 34,000 -250 Descending Jacksonville Center
Wed 02:14:06 PM 31.1275 -81.9533 194° South 432 497 34,000  Level Jacksonville Center
Wed 02:15:06 PM 31.0108 -81.9836 193° South 432 497 34,000 -50 Level Jacksonville Center
Wed 02:16:06 PM 30.8900 -82.0164 193° South 432 497 33,900  Descending Jacksonville Center
Wed 02:17:06 PM 30.7711 -82.0489 193° South 432 497 34,000 50 Climbing Jacksonville Center
Wed 02:18:06 PM 30.6481 -82.0811 193° South 443 510 34,000  Level Jacksonville Center
Wed 02:19:06 PM 30.5167 -82.1089 190° South 448 516 34,000  Level Jacksonville Center
Wed 02:20:06 PM 30.3939 -82.1436 194° South 448 516 34,000 -50 Level Jacksonville Center
Wed 02:21:06 PM 30.2750 -82.1783 194° South 448 516 33,900 -400 Descending Jacksonville Center
Wed 02:22:06 PM 30.1731 -82.2631 216° Southwest 448 516 33,200 -450 Descending Jacksonville Center
Wed 02:23:06 PM 30.0797 -82.3692 225° Southwest 459 528 33,000 -100 Descending Jacksonville Center
Wed 02:24:06 PM 29.9903 -82.4633 222° Southwest 454 522 33,000  Level Jacksonville Center
Wed 02:25:06 PM 29.9092 -82.5667 228° Southwest 447 514 33,000  Level Jacksonville Center
Wed 02:26:06 PM 29.8322 -82.6867 234° Southwest 448 516 33,000  Level Jacksonville Center
Wed 02:27:06 PM 29.7569 -82.8017 233° Southwest 455 524 33,000  Level Jacksonville Center
Wed 02:28:06 PM 29.6819 -82.9142 233° Southwest 455 524 33,000 -50 Level Jacksonville Center
Wed 02:29:06 PM 29.5983 -83.0217 228° Southwest 453 521 32,900 -50 Descending Jacksonville Center
Wed 02:30:06 PM 29.5189 -83.1289 230° Southwest 453 521 32,900 -250 Level Jacksonville Center
Wed 02:31:06 PM 29.4414 -83.2217 226° Southwest 448 516 32,400 -1,200 Descending Jacksonville Center
Wed 02:32:06 PM 29.3328 -83.2953 211° Southwest 448 516 30,500 -2,000 Descending Jacksonville Center
Wed 02:33:06 PM 29.2156 -83.3542 204° Southwest 453 521 28,400 -2,150 Descending Jacksonville Center
Wed 02:34:06 PM 29.0944 -83.3986 198° South 453 521 26,200 -2,200 Descending Jacksonville Center
Wed 02:35:06 PM 28.9733 -83.3553 163° South 435 501 24,000 -2,300 Descending Jacksonville Center
Wed 02:36:06 PM 28.8650 -83.2886 152° Southeast 430 495 21,600 -2,351 Descending Jacksonville Center
Wed 02:37:57 PM 28.6833 -83.1667 149° Southeast 332 382 17,300 -2,163 Descending Tampa TRACON
Wed 02:38:58 PM 28.6000 -83.1167 152° Southeast 322 371 15,400 -1,850 Descending Tampa TRACON
Wed 02:39:57 PM 28.5333 -83.0667 147° Southeast 305 351 13,600 -1,700 Descending Tampa TRACON
Wed 02:40:58 PM 28.4667 -83.0333 156° South 283 326 12,000 -1,785 Descending Tampa TRACON
Wed 02:41:58 PM 28.3833 -82.9833 152° Southeast 292 336 10,000 -1,900 Descending Tampa TRACON
Wed 02:42:58 PM 28.3167 -82.9500 156° South 282 325 8,200 -1,850 Descending Tampa TRACON
Wed 02:43:58 PM 28.2500 -82.9000 147° Southeast 265 305 6,300 -1,750 Descending Tampa TRACON
Wed 02:44:58 PM 28.2000 -82.8667 150° Southeast 255 293 4,700 -1,250 Descending Tampa TRACON
Wed 02:45:58 PM 28.1333 -82.8333 156° South 218 251 3,800 -1,053 Descending Tampa TRACON
Wed 02:46:52 PM 28.1000 -82.8000 139° Southeast 202 232 2,700 -789 Descending Tampa TRACON
Wed 02:47:52 PM 28.0500 -82.7667 150° Southeast 208 239 2,300 -500 Descending Tampa TRACON
Wed 02:49:04 PM 28.0000 -82.7167 139° Southeast 169 194 1,600 -591 Descending Tampa TRACON
Wed 02:50:04 PM 27.9667 -82.7000 156° South 135 155 1,000 -632 Descending Tampa TRACON
Wed 02:50:58 PM 27.9333 -82.7000 180° South 110 127 400 -667 Descending Tampa TRACON

Login

Don't have an account? Register now (free) for customized features, flight alerts, and more!